createdAt,value
2018-12-14T00:00:14.013Z,15.60
2018-12-14T00:05:18.497Z,15.67
2018-12-14T00:10:22.984Z,14.63
2018-12-14T00:15:27.502Z,13.93
2018-12-14T00:20:31.994Z,14.47
2018-12-14T00:25:36.705Z,14.03
2018-12-14T00:30:41.206Z,13.97
2018-12-14T00:35:45.739Z,13.60
2018-12-14T00:40:50.249Z,13.90
2018-12-14T00:45:54.750Z,12.60
2018-12-14T00:50:59.241Z,12.57
2018-12-14T00:56:03.741Z,13.23
2018-12-14T01:01:08.231Z,12.30
2018-12-14T01:06:13.658Z,12.40
2018-12-14T01:11:17.285Z,12.13
2018-12-14T01:16:21.765Z,11.97
2018-12-14T01:21:26.293Z,10.83
2018-12-14T01:26:30.797Z,12.00
2018-12-14T01:31:35.302Z,12.60
2018-12-14T01:36:39.778Z,11.80
2018-12-14T01:41:44.321Z,11.13
2018-12-14T01:46:48.843Z,11.87
2018-12-14T01:51:53.325Z,11.20
2018-12-14T01:56:57.935Z,11.33
2018-12-14T02:02:02.425Z,12.43
2018-12-14T02:07:07.007Z,11.40
2018-12-14T02:12:11.667Z,11.70
2018-12-14T02:17:16.074Z,11.63
2018-12-14T02:22:20.609Z,12.30
2018-12-14T02:27:25.109Z,12.37
2018-12-14T02:32:29.698Z,12.60
2018-12-14T02:37:34.221Z,11.10
2018-12-14T02:42:38.773Z,11.93
2018-12-14T02:47:43.260Z,12.43
2018-12-14T02:52:47.749Z,11.37
2018-12-14T02:57:52.244Z,13.63
2018-12-14T03:02:56.729Z,14.07
2018-12-14T03:08:01.249Z,12.13
2018-12-14T03:13:05.751Z,13.67
2018-12-14T03:18:10.310Z,13.30
2018-12-14T03:23:14.823Z,12.77
2018-12-14T03:28:19.322Z,13.53
2018-12-14T03:33:23.811Z,14.83
2018-12-14T03:38:28.299Z,13.60
2018-12-14T03:43:32.790Z,13.00
2018-12-14T03:48:37.287Z,13.77
2018-12-14T03:53:41.777Z,14.23
2018-12-14T03:58:46.303Z,14.10
2018-12-14T04:03:50.789Z,15.73
2018-12-14T04:08:55.294Z,13.93
2018-12-14T04:13:59.796Z,16.20
2018-12-14T04:19:04.305Z,15.27
2018-12-14T04:24:08.827Z,15.43
2018-12-14T04:29:13.342Z,14.37
2018-12-14T04:34:17.839Z,14.00
2018-12-14T04:39:22.405Z,14.13
2018-12-14T04:44:26.934Z,13.70
2018-12-14T04:49:31.454Z,14.33
2018-12-14T04:54:35.943Z,14.57
2018-12-14T04:59:40.438Z,13.53
2018-12-14T05:04:44.994Z,13.87
2018-12-14T05:09:49.545Z,15.00
2018-12-14T05:14:54.041Z,13.00
2018-12-14T05:19:58.566Z,14.60
2018-12-14T05:25:03.251Z,13.20
2018-12-14T05:30:08.367Z,14.53
2018-12-14T05:35:12.833Z,14.93
2018-12-14T05:40:17.429Z,13.93
2018-12-14T05:45:21.924Z,13.70
2018-12-14T05:50:26.425Z,15.53
2018-12-14T05:55:31.021Z,15.20
2018-12-14T06:00:35.502Z,15.73
2018-12-14T06:05:40.104Z,17.00
2018-12-14T06:10:44.638Z,14.97
2018-12-14T06:15:49.201Z,17.40
2018-12-14T06:20:53.697Z,15.80
2018-12-14T06:25:58.236Z,16.50
2018-12-14T06:31:02.712Z,17.30
2018-12-14T06:37:31.682Z,17.13
2018-12-14T06:42:36.169Z,18.03
2018-12-14T06:47:40.674Z,17.63
2018-12-14T06:52:45.169Z,17.07
2018-12-14T06:57:56.258Z,17.13
2018-12-14T07:03:00.738Z,17.93
2018-12-14T07:08:05.558Z,17.57
2018-12-14T07:13:10.114Z,18.73
2018-12-14T07:18:14.608Z,17.87
2018-12-14T07:23:19.128Z,17.70
2018-12-14T07:28:23.614Z,16.17
2018-12-14T07:33:28.097Z,17.00
2018-12-14T07:38:32.572Z,16.33
2018-12-14T07:43:37.053Z,17.13
2018-12-14T07:48:41.533Z,15.23
2018-12-14T07:53:46.161Z,17.57
2018-12-14T07:58:50.709Z,16.00
2018-12-14T08:03:55.193Z,16.70
2018-12-14T08:08:59.687Z,15.57
2018-12-14T08:14:04.279Z,17.27
2018-12-14T08:19:09.453Z,14.47
2018-12-14T08:24:13.970Z,15.37
2018-12-14T08:29:18.520Z,15.53
2018-12-14T08:34:23.041Z,14.10
2018-12-14T08:39:27.582Z,12.90
2018-12-14T08:44:32.087Z,13.90
2018-12-14T08:49:36.594Z,13.80
2018-12-14T08:54:41.072Z,13.37
2018-12-14T08:59:45.623Z,13.30
2018-12-14T09:04:51.246Z,13.60
2018-12-14T09:09:55.842Z,10.87
2018-12-14T09:15:00.430Z,12.13
2018-12-14T09:20:05.005Z,11.73
2018-12-14T09:25:11.299Z,12.57
2018-12-14T09:30:15.877Z,11.53
2018-12-14T09:35:20.449Z,10.93
2018-12-14T09:40:25.066Z,11.10
2018-12-14T09:45:29.549Z,10.77
2018-12-14T09:50:34.037Z,10.37
2018-12-14T09:55:38.534Z,10.33
2018-12-14T10:00:43.042Z,9.93
2018-12-14T10:05:47.541Z,10.87
2018-12-14T10:10:52.082Z,10.73
2018-12-14T10:15:56.575Z,11.33
2018-12-14T10:21:01.131Z,10.97
2018-12-14T10:26:05.695Z,11.63
2018-12-14T10:31:10.173Z,10.63
2018-12-14T10:36:14.758Z,10.50
2018-12-14T10:41:19.270Z,9.77
2018-12-14T10:46:23.998Z,9.70
2018-12-14T10:51:28.493Z,8.50
2018-12-14T10:56:32.975Z,9.27
2018-12-14T11:01:42.945Z,9.60
2018-12-14T11:06:47.545Z,9.33
2018-12-14T11:11:52.369Z,8.00
2018-12-14T11:16:56.858Z,8.50
2018-12-14T11:22:01.405Z,7.67
2018-12-14T11:27:05.902Z,8.73
2018-12-14T11:32:10.381Z,8.90
2018-12-14T11:37:14.913Z,10.93
2018-12-14T11:42:19.565Z,12.23
2018-12-14T11:47:24.052Z,11.60
2018-12-14T11:52:28.617Z,11.27
2018-12-14T11:57:33.096Z,11.20
2018-12-14T12:02:42.886Z,11.13
2018-12-14T12:07:42.242Z,12.20
2018-12-14T12:12:46.801Z,12.03
2018-12-14T12:17:51.317Z,12.23
2018-12-14T12:22:56.467Z,12.53
2018-12-14T12:28:01.003Z,12.80
2018-12-14T12:33:05.480Z,12.90
2018-12-14T12:38:09.969Z,11.40
2018-12-14T12:43:14.537Z,11.30
2018-12-14T12:48:19.053Z,12.77
2018-12-14T12:53:23.551Z,12.87
2018-12-14T12:58:28.038Z,14.07
2018-12-14T13:03:32.538Z,13.07
2018-12-14T13:08:37.046Z,14.83
2018-12-14T13:13:41.529Z,14.70
2018-12-14T13:18:46.109Z,14.77
2018-12-14T13:23:50.597Z,15.27
2018-12-14T13:28:55.085Z,15.67
2018-12-14T13:33:59.574Z,15.13
2018-12-14T13:39:05.141Z,14.63
2018-12-14T13:44:09.658Z,15.40
2018-12-14T13:49:14.133Z,16.20
2018-12-14T13:54:18.613Z,16.43
2018-12-14T13:59:23.117Z,15.83
2018-12-14T14:04:27.610Z,16.13
2018-12-14T14:09:32.109Z,16.40
2018-12-14T14:14:36.597Z,15.83
2018-12-14T14:19:41.105Z,16.33
2018-12-14T14:24:45.655Z,16.27
2018-12-14T14:29:50.145Z,17.10
2018-12-14T14:34:54.631Z,17.43
2018-12-14T14:39:59.117Z,16.80
2018-12-14T14:45:03.606Z,18.67
2018-12-14T14:50:09.817Z,19.47
2018-12-14T14:55:14.305Z,18.67
2018-12-14T15:00:18.785Z,18.73
2018-12-14T15:05:23.267Z,19.13
2018-12-14T15:10:27.753Z,20.57
2018-12-14T15:15:32.248Z,19.20
2018-12-14T15:20:36.733Z,20.00
2018-12-14T15:25:41.241Z,20.60
2018-12-14T15:30:45.857Z,18.63
2018-12-14T15:35:50.349Z,19.23
2018-12-14T15:40:54.925Z,19.07
2018-12-14T15:45:59.551Z,19.90
2018-12-14T15:51:04.165Z,20.90
2018-12-14T15:56:08.726Z,20.83
2018-12-14T16:01:13.241Z,22.60
2018-12-14T16:06:17.805Z,20.63
2018-12-14T16:11:22.321Z,20.53
2018-12-14T16:16:26.866Z,19.73
2018-12-14T16:21:31.429Z,19.50
2018-12-14T16:26:35.940Z,19.70
2018-12-14T16:31:41.493Z,21.00
2018-12-14T16:36:45.989Z,20.10
2018-12-14T16:41:50.582Z,21.63
2018-12-14T16:46:55.102Z,21.47
2018-12-14T16:51:59.657Z,20.90
2018-12-14T16:57:04.212Z,21.20
2018-12-14T17:02:08.700Z,22.20
2018-12-14T17:07:13.253Z,21.43
2018-12-14T17:12:17.819Z,22.00
2018-12-14T17:17:22.354Z,22.70
2018-12-14T17:22:26.905Z,24.33
2018-12-14T17:27:31.533Z,21.70
2018-12-14T17:32:36.053Z,21.13
2018-12-14T17:37:40.633Z,21.43
2018-12-14T17:42:45.141Z,22.80
2018-12-14T17:47:49.690Z,23.80
2018-12-14T17:52:54.218Z,22.80
2018-12-14T17:57:58.721Z,26.40
2018-12-14T18:03:03.228Z,25.97
2018-12-14T18:08:07.745Z,21.90
2018-12-14T18:13:12.238Z,25.73
2018-12-14T18:18:16.746Z,24.67
2018-12-14T18:23:21.241Z,29.57
2018-12-14T18:28:25.753Z,21.27
2018-12-14T18:33:30.249Z,25.00
2018-12-14T18:38:34.738Z,23.43
2018-12-14T18:43:39.285Z,21.73
2018-12-14T18:48:43.833Z,22.27
2018-12-14T18:53:50.428Z,22.40
2018-12-14T18:58:54.923Z,22.63
2018-12-14T19:03:59.413Z,22.27
2018-12-14T19:09:03.949Z,21.90
2018-12-14T19:14:08.462Z,21.77
2018-12-14T19:19:12.969Z,21.27
2018-12-14T19:24:17.481Z,21.37
2018-12-14T19:29:21.990Z,20.40
2018-12-14T19:34:31.379Z,21.30
2018-12-14T19:39:31.074Z,20.83
2018-12-14T19:44:35.681Z,21.37
2018-12-14T19:49:40.339Z,21.00
2018-12-14T19:54:44.891Z,21.33
2018-12-14T19:59:49.454Z,21.23
2018-12-14T20:04:54.065Z,20.57
2018-12-14T20:09:58.616Z,20.97
2018-12-14T20:15:03.238Z,20.77
2018-12-14T20:20:08.517Z,20.33
2018-12-14T20:25:13.370Z,20.00
2018-12-14T20:30:18.238Z,19.93
2018-12-14T20:35:23.037Z,20.97
2018-12-14T20:40:27.663Z,20.03
2018-12-14T20:45:32.374Z,18.87
2018-12-14T20:50:37.085Z,18.97
2018-12-14T20:55:41.761Z,19.30
2018-12-14T21:00:46.757Z,17.33
2018-12-14T21:05:51.305Z,16.50
2018-12-14T21:10:55.826Z,17.73
2018-12-14T21:16:00.354Z,16.67
2018-12-14T21:21:04.893Z,17.57
2018-12-14T21:26:09.445Z,15.80
2018-12-14T21:31:13.978Z,16.77
2018-12-14T21:36:18.482Z,16.17
2018-12-14T21:41:23.022Z,15.60
2018-12-14T21:46:32.610Z,15.17
2018-12-14T21:51:32.114Z,14.77
2018-12-14T21:56:36.626Z,13.70
2018-12-14T22:01:42.348Z,15.50
2018-12-14T22:06:46.910Z,13.67
2018-12-14T22:11:52.126Z,14.77
2018-12-14T22:16:56.633Z,15.23
2018-12-14T22:22:01.218Z,13.90
2018-12-14T22:27:05.757Z,15.03
2018-12-14T22:32:10.297Z,14.40
2018-12-14T22:37:14.817Z,14.17
2018-12-14T22:42:19.368Z,14.70
2018-12-14T22:47:23.926Z,12.50
2018-12-14T22:52:28.457Z,14.57
2018-12-14T22:57:32.974Z,12.43
2018-12-14T23:02:37.557Z,11.50
2018-12-14T23:07:42.163Z,12.60
2018-12-14T23:12:46.657Z,12.63
2018-12-14T23:17:51.165Z,11.83
2018-12-14T23:22:55.705Z,11.60
2018-12-14T23:28:00.225Z,11.57
2018-12-14T23:33:04.727Z,10.97
2018-12-14T23:38:09.262Z,9.70
2018-12-14T23:43:13.773Z,9.77
2018-12-14T23:48:20.102Z,10.20
2018-12-14T23:53:24.626Z,10.40
2018-12-14T23:58:29.143Z,10.87
